createdAt,value
2023-06-17T00:00:09.904Z,16.70
2023-06-17T00:02:38.002Z,16.70
2023-06-17T00:05:07.212Z,16.60
2023-06-17T00:07:35.359Z,16.60
2023-06-17T00:10:03.602Z,16.50
2023-06-17T00:12:33.073Z,16.50
2023-06-17T00:15:02.776Z,16.40
2023-06-17T00:17:33.430Z,16.30
2023-06-17T00:20:09.155Z,16.20
2023-06-17T00:22:37.670Z,16.10
2023-06-17T00:25:07.109Z,16.10
2023-06-17T00:27:35.273Z,16.10
2023-06-17T00:30:03.335Z,16.10
2023-06-17T00:32:32.760Z,16.00
2023-06-17T00:35:00.905Z,15.90
2023-06-17T00:37:29.022Z,15.90
2023-06-17T00:39:57.081Z,15.90
2023-06-17T00:42:25.117Z,15.90
2023-06-17T00:44:53.661Z,15.90
2023-06-17T00:47:22.322Z,15.90
2023-06-17T00:49:54.502Z,15.90
2023-06-17T00:52:40.370Z,15.90
2023-06-17T00:55:11.001Z,15.80
2023-06-17T00:57:39.663Z,15.70
2023-06-17T01:00:12.052Z,15.70
2023-06-17T01:02:42.296Z,15.70
2023-06-17T01:05:14.099Z,15.60
2023-06-17T01:07:59.058Z,15.60
2023-06-17T01:10:35.314Z,15.60
2023-06-17T01:13:04.820Z,15.60
2023-06-17T01:15:34.305Z,15.60
2023-06-17T01:18:05.337Z,15.60
2023-06-17T01:20:36.966Z,15.60
2023-06-17T01:23:06.462Z,15.50
2023-06-17T01:25:36.578Z,15.50
2023-06-17T01:28:17.914Z,15.50
2023-06-17T01:30:46.370Z,15.50
2023-06-17T01:33:15.745Z,15.40
2023-06-17T01:35:51.316Z,15.40
2023-06-17T01:38:25.337Z,15.30
2023-06-17T01:40:59.957Z,15.40
2023-06-17T01:43:29.683Z,15.30
2023-06-17T01:45:59.254Z,15.30
2023-06-17T01:48:27.642Z,15.30
2023-06-17T01:50:56.227Z,15.30
2023-06-17T01:53:25.986Z,15.30
2023-06-17T01:55:56.009Z,15.30
2023-06-17T01:58:24.560Z,15.20
2023-06-17T02:00:52.786Z,15.20
2023-06-17T02:03:21.037Z,15.20
2023-06-17T02:05:51.739Z,15.20
2023-06-17T02:08:19.838Z,15.20
2023-06-17T02:10:47.904Z,15.10
2023-06-17T02:13:17.300Z,15.10
2023-06-17T02:15:46.082Z,15.10
2023-06-17T02:18:15.209Z,15.10
2023-06-17T02:20:46.485Z,15.20
2023-06-17T02:23:14.589Z,15.20
2023-06-17T02:25:42.818Z,15.20
2023-06-17T02:28:10.983Z,15.10
2023-06-17T02:30:40.697Z,15.00
2023-06-17T02:33:09.233Z,15.00
2023-06-17T02:35:37.231Z,15.00
2023-06-17T02:38:06.489Z,14.90
2023-06-17T02:40:34.591Z,14.90
2023-06-17T02:43:02.653Z,15.00
2023-06-17T02:45:30.801Z,15.00
2023-06-17T02:48:00.546Z,15.10
2023-06-17T02:50:28.792Z,15.20
2023-06-17T02:52:57.627Z,15.10
2023-06-17T02:55:29.138Z,15.00
2023-06-17T02:57:59.443Z,15.00
2023-06-17T03:00:33.895Z,15.10
2023-06-17T03:03:03.462Z,15.00
2023-06-17T03:05:31.755Z,15.00
2023-06-17T03:08:00.954Z,15.00
2023-06-17T03:10:29.088Z,15.00
2023-06-17T03:13:05.906Z,14.90
2023-06-17T03:15:35.014Z,14.90
2023-06-17T03:18:05.309Z,14.90
2023-06-17T03:20:34.415Z,14.80
2023-06-17T03:23:03.804Z,14.80
2023-06-17T03:25:32.755Z,14.80
2023-06-17T03:28:03.015Z,14.80
2023-06-17T03:30:31.678Z,14.80
2023-06-17T03:32:59.988Z,14.80
2023-06-17T03:35:29.427Z,14.80
2023-06-17T03:37:57.708Z,14.80
2023-06-17T03:40:27.100Z,14.80
2023-06-17T03:42:55.814Z,14.80
2023-06-17T03:45:24.509Z,14.80
2023-06-17T03:47:57.002Z,14.80
2023-06-17T03:50:25.224Z,14.70
2023-06-17T03:52:55.829Z,14.70
2023-06-17T03:55:24.684Z,14.80
2023-06-17T03:57:54.595Z,14.70
2023-06-17T04:00:23.712Z,14.80
2023-06-17T04:02:52.183Z,14.80
2023-06-17T04:05:33.995Z,14.90
2023-06-17T04:08:05.058Z,14.90
2023-06-17T04:10:35.461Z,14.90
2023-06-17T04:13:03.539Z,15.10
2023-06-17T04:15:31.610Z,15.00
2023-06-17T04:18:03.278Z,15.00
2023-06-17T04:20:35.665Z,15.00
2023-06-17T04:23:05.410Z,14.90
2023-06-17T04:25:37.823Z,15.00
2023-06-17T04:28:08.466Z,15.00
2023-06-17T04:30:38.928Z,15.00
2023-06-17T04:33:07.562Z,15.00
2023-06-17T04:35:36.501Z,15.10
2023-06-17T04:38:07.039Z,15.20
2023-06-17T04:40:37.854Z,15.20
2023-06-17T04:43:06.982Z,15.30
2023-06-17T04:45:36.356Z,15.40
2023-06-17T04:48:07.396Z,15.40
2023-06-17T04:50:36.688Z,15.50
2023-06-17T04:53:06.328Z,15.60
2023-06-17T04:55:39.368Z,15.70
2023-06-17T04:58:10.571Z,15.70
2023-06-17T05:00:50.270Z,15.80
2023-06-17T05:03:24.771Z,15.70
2023-06-17T05:05:54.758Z,15.80
2023-06-17T05:08:25.891Z,15.90
2023-06-17T05:10:54.312Z,15.90
2023-06-17T05:13:24.002Z,15.90
2023-06-17T05:15:54.012Z,16.00
2023-06-17T05:18:22.528Z,15.90
2023-06-17T05:20:51.911Z,16.00
2023-06-17T05:23:20.794Z,16.10
2023-06-17T05:25:50.280Z,16.10
2023-06-17T05:28:19.351Z,16.20
2023-06-17T05:30:47.759Z,16.20
2023-06-17T05:33:18.413Z,16.30
2023-06-17T05:35:46.760Z,16.50
2023-06-17T05:38:14.826Z,16.60
2023-06-17T05:40:42.858Z,16.60
2023-06-17T05:43:12.749Z,16.60
2023-06-17T05:45:43.495Z,16.60
2023-06-17T05:48:12.812Z,16.70
2023-06-17T05:50:41.060Z,16.80
2023-06-17T05:53:09.568Z,16.90
2023-06-17T05:55:37.598Z,16.90
2023-06-17T05:58:05.775Z,17.00
2023-06-17T06:00:37.872Z,17.10
2023-06-17T06:03:05.978Z,17.10
2023-06-17T06:05:34.739Z,17.20
2023-06-17T06:08:02.760Z,17.30
2023-06-17T06:10:30.920Z,17.30
2023-06-17T06:13:02.190Z,17.20
2023-06-17T06:15:31.773Z,17.40
2023-06-17T06:18:01.304Z,17.40
2023-06-17T06:20:30.454Z,17.50
2023-06-17T06:22:59.564Z,17.60
2023-06-17T06:25:29.214Z,17.60
2023-06-17T06:27:59.593Z,17.60
2023-06-17T06:30:29.682Z,17.60
2023-06-17T06:32:57.963Z,17.80
2023-06-17T06:35:28.170Z,17.80
2023-06-17T06:37:56.574Z,17.90
2023-06-17T06:40:25.158Z,17.90
2023-06-17T06:42:53.291Z,18.00
2023-06-17T06:45:28.978Z,18.20
2023-06-17T06:47:57.289Z,18.50
2023-06-17T06:50:27.211Z,18.60
2023-06-17T06:52:55.565Z,18.60
2023-06-17T06:55:27.456Z,18.80
2023-06-17T06:57:56.916Z,18.90
2023-06-17T07:00:25.923Z,19.00
2023-06-17T07:02:54.259Z,18.90
2023-06-17T07:05:23.378Z,19.00
2023-06-17T07:07:57.100Z,19.10
2023-06-17T07:10:25.658Z,19.10
2023-06-17T07:12:53.774Z,19.30
2023-06-17T07:15:21.866Z,19.40
2023-06-17T07:17:51.751Z,19.20
2023-06-17T07:20:20.325Z,19.60
2023-06-17T07:22:49.622Z,19.50
2023-06-17T07:25:20.064Z,19.60
2023-06-17T07:27:48.183Z,19.70
2023-06-17T07:30:17.315Z,19.90
2023-06-17T07:32:45.579Z,19.80
2023-06-17T07:35:13.779Z,19.90
2023-06-17T07:37:42.316Z,19.90
2023-06-17T07:40:14.127Z,19.60
2023-06-17T07:42:44.051Z,19.20
2023-06-17T07:45:13.153Z,19.20
2023-06-17T07:47:41.394Z,19.20
2023-06-17T07:50:10.599Z,19.40
2023-06-17T07:52:38.924Z,19.60
2023-06-17T07:55:09.488Z,19.60
2023-06-17T07:57:37.855Z,19.70
2023-06-17T08:00:11.164Z,19.90
2023-06-17T08:02:45.411Z,20.20
2023-06-17T08:05:13.658Z,20.30
2023-06-17T08:07:41.721Z,20.40
2023-06-17T08:10:10.673Z,20.50
2023-06-17T08:12:38.952Z,20.60
2023-06-17T08:15:10.185Z,20.50
2023-06-17T08:17:38.410Z,20.60
2023-06-17T08:20:07.627Z,20.90
2023-06-17T08:22:37.137Z,21.30
2023-06-17T08:25:05.885Z,21.70
2023-06-17T08:27:34.316Z,22.00
2023-06-17T08:30:02.569Z,22.30
2023-06-17T08:32:39.316Z,22.50
2023-06-17T08:35:09.237Z,22.40
2023-06-17T08:37:37.471Z,22.30
2023-06-17T08:40:06.705Z,22.40
2023-06-17T08:42:34.945Z,22.60
2023-06-17T08:45:03.836Z,22.60
2023-06-17T08:47:34.337Z,22.50
2023-06-17T08:50:03.850Z,22.40
2023-06-17T08:52:35.825Z,22.20
2023-06-17T08:55:04.386Z,22.30
2023-06-17T08:57:32.901Z,22.00
2023-06-17T09:00:01.036Z,21.90
2023-06-17T09:02:30.595Z,22.00
2023-06-17T09:05:00.076Z,22.00
2023-06-17T09:07:28.803Z,22.10
2023-06-17T09:09:57.323Z,22.60
2023-06-17T09:12:26.759Z,23.20
2023-06-17T09:14:56.356Z,23.70
2023-06-17T09:17:31.020Z,23.70
2023-06-17T09:20:11.368Z,23.90
2023-06-17T09:22:43.843Z,23.80
2023-06-17T09:25:14.748Z,24.00
2023-06-17T09:27:58.421Z,24.00
2023-06-17T09:30:43.138Z,24.10
2023-06-17T09:33:19.391Z,24.00
2023-06-17T09:35:49.297Z,23.40
2023-06-17T09:38:19.431Z,23.40
2023-06-17T09:40:50.797Z,23.90
2023-06-17T09:43:27.080Z,24.00
2023-06-17T09:45:57.140Z,24.40
2023-06-17T09:48:30.946Z,24.20
2023-06-17T09:51:01.836Z,24.10
2023-06-17T09:53:31.727Z,23.90
2023-06-17T09:56:01.756Z,23.90
2023-06-17T09:58:31.632Z,24.10
2023-06-17T10:01:01.668Z,24.40
2023-06-17T10:03:30.317Z,24.70
2023-06-17T10:06:04.146Z,24.60
2023-06-17T10:08:33.694Z,24.00
2023-06-17T10:11:02.245Z,23.30
2023-06-17T10:13:33.749Z,23.10
2023-06-17T10:16:03.532Z,22.70
2023-06-17T10:18:32.792Z,22.70
2023-06-17T10:21:03.591Z,22.70
2023-06-17T10:23:33.487Z,22.60
2023-06-17T10:26:01.672Z,22.70
2023-06-17T10:28:45.778Z,22.60
2023-06-17T10:31:27.427Z,22.60
2023-06-17T10:33:56.740Z,22.70
2023-06-17T10:36:28.102Z,22.60
2023-06-17T10:38:57.950Z,22.50
2023-06-17T10:41:53.202Z,22.50
2023-06-17T10:44:42.540Z,22.60
2023-06-17T10:47:24.229Z,22.80
2023-06-17T10:49:55.021Z,22.70
2023-06-17T10:52:24.953Z,22.80
2023-06-17T10:54:54.375Z,22.80
2023-06-17T10:57:35.671Z,22.80
2023-06-17T11:00:09.694Z,22.80
2023-06-17T11:02:38.773Z,23.00
2023-06-17T11:05:08.036Z,23.20
2023-06-17T11:07:38.429Z,23.20
2023-06-17T11:10:07.559Z,23.10
2023-06-17T11:12:37.014Z,23.20
2023-06-17T11:15:07.969Z,23.50
2023-06-17T11:17:36.143Z,23.60
2023-06-17T11:20:06.905Z,23.70
2023-06-17T11:22:40.185Z,23.90
2023-06-17T11:25:11.155Z,23.70
2023-06-17T11:27:41.627Z,23.70
2023-06-17T11:30:10.843Z,23.90
2023-06-17T11:32:40.767Z,24.00
2023-06-17T11:35:10.651Z,24.00
2023-06-17T11:37:41.014Z,24.10
2023-06-17T11:40:13.003Z,24.20
2023-06-17T11:42:41.773Z,24.20
2023-06-17T11:45:11.016Z,24.30
2023-06-17T11:47:39.206Z,24.40
2023-06-17T11:50:08.325Z,24.60
2023-06-17T11:52:36.919Z,24.50
2023-06-17T11:55:06.923Z,24.70
2023-06-17T11:57:35.103Z,24.80
2023-06-17T12:00:11.012Z,24.70
2023-06-17T12:02:42.307Z,24.70
2023-06-17T12:05:11.694Z,24.70
2023-06-17T12:07:40.904Z,24.60
2023-06-17T12:10:13.725Z,24.60
2023-06-17T12:12:42.211Z,24.60
2023-06-17T12:17:43.183Z,24.40
2023-06-17T12:20:16.136Z,24.80
2023-06-17T12:22:44.674Z,25.00
2023-06-17T12:25:14.349Z,24.70
2023-06-17T12:27:43.866Z,24.80
2023-06-17T12:30:13.147Z,24.60
2023-06-17T12:32:44.750Z,24.50
2023-06-17T12:35:16.011Z,24.30
2023-06-17T12:37:45.056Z,24.70
2023-06-17T12:40:14.857Z,25.40
2023-06-17T12:42:43.599Z,25.90
2023-06-17T12:45:14.181Z,25.70
2023-06-17T12:47:43.215Z,25.90
2023-06-17T12:50:12.357Z,26.00
2023-06-17T12:52:40.637Z,25.80
2023-06-17T12:55:10.017Z,25.60
2023-06-17T12:57:39.570Z,25.50
2023-06-17T13:00:09.058Z,25.80
2023-06-17T13:02:38.919Z,26.10
2023-06-17T13:05:08.487Z,26.00
2023-06-17T13:07:36.709Z,26.30
2023-06-17T13:10:06.748Z,26.40
2023-06-17T13:12:34.870Z,26.80
2023-06-17T13:15:05.364Z,27.40
2023-06-17T13:17:33.772Z,27.20
2023-06-17T13:20:02.594Z,27.10
2023-06-17T13:22:32.353Z,27.00
2023-06-17T13:25:01.238Z,26.90
2023-06-17T13:27:29.709Z,26.80
2023-06-17T13:29:59.930Z,27.00
2023-06-17T13:32:29.450Z,26.90
2023-06-17T13:34:57.653Z,26.70
2023-06-17T13:37:25.744Z,26.80
2023-06-17T13:39:53.882Z,26.90
2023-06-17T13:42:22.411Z,27.00
2023-06-17T13:44:50.538Z,26.70
2023-06-17T13:47:18.802Z,26.40
2023-06-17T13:49:48.207Z,26.70
2023-06-17T13:52:17.445Z,27.10
2023-06-17T13:54:45.669Z,27.20
2023-06-17T13:57:15.953Z,26.60
2023-06-17T13:59:44.255Z,26.10
2023-06-17T14:02:12.575Z,25.20
2023-06-17T14:04:41.138Z,24.90
2023-06-17T14:07:10.644Z,25.20
2023-06-17T14:09:38.902Z,25.30
2023-06-17T14:12:08.862Z,25.40
2023-06-17T14:14:37.092Z,25.20
2023-06-17T14:17:05.576Z,25.10
2023-06-17T14:19:34.912Z,25.50
2023-06-17T14:22:06.815Z,25.80
2023-06-17T14:24:39.002Z,25.90
2023-06-17T14:27:36.684Z,25.90
2023-06-17T14:30:05.559Z,25.60
2023-06-17T14:32:33.699Z,25.20
2023-06-17T14:35:01.959Z,25.20
2023-06-17T14:37:30.748Z,25.10
2023-06-17T14:40:00.406Z,25.20
2023-06-17T14:42:28.798Z,25.30
2023-06-17T14:44:56.902Z,25.20
2023-06-17T14:47:25.237Z,25.30
2023-06-17T14:49:53.600Z,25.60
2023-06-17T14:52:21.998Z,26.00
2023-06-17T14:54:50.105Z,25.80
2023-06-17T14:57:19.516Z,25.50
2023-06-17T14:59:48.640Z,25.00
2023-06-17T15:02:57.368Z,24.80
2023-06-17T15:05:27.693Z,24.50
2023-06-17T15:07:56.194Z,24.30
2023-06-17T15:10:24.739Z,24.30
2023-06-17T15:12:54.355Z,24.30
2023-06-17T15:15:22.661Z,24.30
2023-06-17T15:17:50.897Z,24.20
2023-06-17T15:20:20.776Z,24.10
2023-06-17T15:22:49.272Z,23.90
2023-06-17T15:25:17.494Z,23.70
2023-06-17T15:27:45.602Z,23.70
2023-06-17T15:30:15.414Z,23.80
2023-06-17T15:32:43.507Z,23.80
2023-06-17T15:35:11.716Z,24.00
2023-06-17T15:37:39.764Z,24.30
2023-06-17T15:40:09.132Z,24.80
2023-06-17T15:42:38.187Z,24.70
2023-06-17T15:45:07.557Z,24.70
2023-06-17T15:47:37.007Z,24.70
2023-06-17T15:50:05.453Z,24.80
2023-06-17T15:52:33.528Z,25.10
2023-06-17T15:55:02.533Z,25.10
2023-06-17T15:57:30.580Z,25.10
2023-06-17T15:59:58.922Z,24.70
2023-06-17T16:02:27.816Z,24.70
2023-06-17T16:04:57.210Z,24.70
2023-06-17T16:07:25.352Z,24.80
2023-06-17T16:09:53.778Z,24.70
2023-06-17T16:12:23.354Z,24.60
2023-06-17T16:14:51.516Z,24.40
2023-06-17T16:17:20.086Z,24.30
2023-06-17T16:19:48.494Z,23.90
2023-06-17T16:22:17.925Z,23.80
2023-06-17T16:24:46.167Z,23.70
2023-06-17T16:27:14.224Z,23.70
2023-06-17T16:29:42.405Z,23.50
2023-06-17T16:32:11.246Z,23.40
2023-06-17T16:34:39.632Z,23.40
2023-06-17T16:37:07.793Z,23.30
2023-06-17T16:39:37.273Z,23.20
2023-06-17T16:42:07.478Z,23.20
2023-06-17T16:44:36.676Z,23.20
2023-06-17T16:47:05.242Z,23.20
2023-06-17T16:49:33.345Z,23.00
2023-06-17T16:52:01.906Z,23.00
2023-06-17T16:54:29.982Z,22.90
2023-06-17T16:56:59.412Z,22.80
2023-06-17T16:59:27.508Z,22.70
2023-06-17T17:01:56.417Z,22.70
2023-06-17T17:04:24.603Z,22.60
2023-06-17T17:06:52.622Z,22.60
2023-06-17T17:09:20.936Z,22.50
2023-06-17T17:11:49.003Z,22.40
2023-06-17T17:14:20.416Z,22.30
2023-06-17T17:16:48.602Z,22.10
2023-06-17T17:19:16.705Z,22.00
2023-06-17T17:21:46.397Z,22.00
2023-06-17T17:24:14.558Z,22.10
2023-06-17T17:26:42.640Z,22.00
2023-06-17T17:29:11.463Z,21.90
2023-06-17T17:31:41.047Z,21.80
2023-06-17T17:34:11.475Z,21.70
2023-06-17T17:36:39.574Z,21.70
2023-06-17T17:39:08.029Z,21.70
2023-06-17T17:41:38.942Z,21.70
2023-06-17T17:44:08.853Z,21.70
2023-06-17T17:46:38.899Z,21.60
2023-06-17T17:49:09.768Z,21.60
2023-06-17T17:51:37.891Z,21.60
2023-06-17T17:54:06.045Z,21.40
2023-06-17T17:56:34.292Z,21.40
2023-06-17T17:59:02.371Z,21.40
2023-06-17T18:01:30.454Z,21.40
2023-06-17T18:03:58.770Z,21.40
2023-06-17T18:06:30.378Z,21.30
2023-06-17T18:08:58.660Z,21.30
2023-06-17T18:11:27.437Z,21.30
2023-06-17T18:13:55.483Z,21.20
2023-06-17T18:16:23.996Z,21.20
2023-06-17T18:18:52.337Z,21.10
2023-06-17T18:21:20.666Z,21.00
2023-06-17T18:23:50.220Z,21.00
2023-06-17T18:26:18.397Z,20.90
2023-06-17T18:28:46.544Z,21.00
2023-06-17T18:31:14.780Z,20.90
2023-06-17T18:33:43.033Z,21.00
2023-06-17T18:36:11.157Z,20.90
2023-06-17T18:38:39.228Z,20.90
2023-06-17T18:41:08.787Z,20.80
2023-06-17T18:43:36.808Z,20.80
2023-06-17T18:46:05.034Z,20.80
2023-06-17T18:48:33.358Z,20.80
2023-06-17T18:51:01.425Z,20.80
2023-06-17T18:53:29.470Z,20.80
2023-06-17T18:55:58.291Z,20.70
2023-06-17T18:58:27.839Z,20.70
2023-06-17T19:00:55.997Z,20.60
2023-06-17T19:03:24.120Z,20.60
2023-06-17T19:05:52.919Z,20.60
2023-06-17T19:08:21.133Z,20.60
2023-06-17T19:10:49.360Z,20.50
2023-06-17T19:13:17.711Z,20.40
2023-06-17T19:15:47.374Z,20.40
2023-06-17T19:18:15.530Z,20.30
2023-06-17T19:20:44.993Z,20.30
2023-06-17T19:23:13.175Z,20.20
2023-06-17T19:25:41.478Z,20.20
2023-06-17T19:28:12.890Z,20.20
2023-06-17T19:30:45.071Z,20.10
2023-06-17T19:33:14.532Z,20.00
2023-06-17T19:35:43.700Z,19.90
2023-06-17T19:38:12.026Z,19.90
2023-06-17T19:40:40.185Z,19.90
2023-06-17T19:43:08.220Z,19.90
2023-06-17T19:45:37.259Z,19.80
2023-06-17T19:48:05.967Z,19.80
2023-06-17T19:50:35.803Z,19.70
2023-06-17T19:53:04.017Z,19.60
2023-06-17T19:55:32.365Z,19.70
2023-06-17T19:58:00.492Z,19.60
2023-06-17T20:00:28.909Z,19.50
2023-06-17T20:02:57.419Z,19.50
2023-06-17T20:05:25.599Z,19.50
2023-06-17T20:07:55.184Z,19.50
2023-06-17T20:10:23.729Z,19.50
2023-06-17T20:12:53.732Z,19.50
2023-06-17T20:15:21.917Z,19.50
2023-06-17T20:17:50.072Z,19.50
2023-06-17T20:20:18.209Z,19.50
2023-06-17T20:22:46.604Z,19.50
2023-06-17T20:25:16.178Z,19.50
2023-06-17T20:27:45.415Z,19.50
2023-06-17T20:30:14.542Z,19.50
2023-06-17T20:32:42.877Z,19.50
2023-06-17T20:35:11.200Z,19.40
2023-06-17T20:37:39.287Z,19.30
2023-06-17T20:40:08.950Z,19.30
2023-06-17T20:42:38.684Z,19.30
2023-06-17T20:45:09.194Z,19.30
2023-06-17T20:47:37.414Z,19.30
2023-06-17T20:50:06.113Z,19.30
2023-06-17T20:52:34.226Z,19.40
2023-06-17T20:55:02.328Z,19.40
2023-06-17T20:57:30.542Z,19.30
2023-06-17T21:00:00.054Z,19.20
2023-06-17T21:02:28.243Z,19.30
2023-06-17T21:04:57.002Z,19.40
2023-06-17T21:07:25.843Z,19.30
2023-06-17T21:09:54.467Z,19.30
2023-06-17T21:12:22.545Z,19.30
2023-06-17T21:14:50.664Z,19.20
2023-06-17T21:17:20.223Z,19.20
2023-06-17T21:19:48.327Z,19.10
2023-06-17T21:22:16.501Z,19.20
2023-06-17T21:24:44.546Z,19.10
2023-06-17T21:27:12.631Z,19.00
2023-06-17T21:29:41.315Z,19.10
2023-06-17T21:32:11.312Z,19.00
2023-06-17T21:34:40.763Z,19.00
2023-06-17T21:37:08.853Z,19.10
2023-06-17T21:39:36.883Z,19.00
2023-06-17T21:42:06.557Z,19.00
2023-06-17T21:44:34.909Z,19.00
2023-06-17T21:47:03.024Z,19.00
2023-06-17T21:49:31.067Z,18.90
2023-06-17T21:52:00.700Z,18.90
2023-06-17T21:54:28.830Z,18.90
2023-06-17T21:56:56.921Z,18.90
2023-06-17T21:59:25.006Z,18.90
2023-06-17T22:01:53.139Z,18.90
2023-06-17T22:04:21.571Z,18.80
2023-06-17T22:06:49.775Z,18.80
2023-06-17T22:09:19.157Z,18.80
2023-06-17T22:11:47.343Z,18.70
2023-06-17T22:14:15.589Z,18.70
2023-06-17T22:16:43.733Z,18.70
2023-06-17T22:19:11.738Z,18.70
2023-06-17T22:21:39.729Z,18.70
2023-06-17T22:24:08.076Z,18.60
2023-06-17T22:26:37.968Z,18.60
2023-06-17T22:29:06.101Z,18.60
2023-06-17T22:31:34.175Z,18.50
2023-06-17T22:34:02.199Z,18.50
2023-06-17T22:36:30.316Z,18.40
2023-06-17T22:38:58.320Z,18.40
2023-06-17T22:41:26.551Z,18.40
2023-06-17T22:43:55.979Z,18.30
2023-06-17T22:46:24.264Z,18.20
2023-06-17T22:48:52.337Z,18.20
2023-06-17T22:51:20.971Z,18.20
2023-06-17T22:53:49.670Z,18.20
2023-06-17T22:56:17.997Z,18.20
2023-06-17T22:58:46.262Z,18.20
2023-06-17T23:01:15.814Z,18.20
2023-06-17T23:03:43.873Z,18.10
2023-06-17T23:06:11.962Z,18.10
2023-06-17T23:08:40.063Z,18.20
2023-06-17T23:11:08.198Z,18.10
2023-06-17T23:13:36.264Z,18.00
2023-06-17T23:16:04.408Z,18.00
2023-06-17T23:18:33.816Z,18.00
2023-06-17T23:21:02.530Z,17.90
2023-06-17T23:23:30.663Z,17.90
2023-06-17T23:26:00.400Z,17.90
2023-06-17T23:28:28.406Z,17.90
2023-06-17T23:30:56.511Z,17.90
2023-06-17T23:33:24.560Z,17.80
2023-06-17T23:35:53.967Z,17.80
2023-06-17T23:38:22.019Z,17.80
2023-06-17T23:40:50.521Z,17.60
2023-06-17T23:43:18.584Z,17.50
2023-06-17T23:45:46.622Z,17.50
2023-06-17T23:48:14.850Z,17.50
2023-06-17T23:50:43.008Z,17.50
2023-06-17T23:53:12.847Z,17.40
2023-06-17T23:55:40.970Z,17.40
2023-06-17T23:58:09.034Z,17.40
